Airfield :
LOGIN :

Register | Disclaimer

   EN    FR    IT 

 










Legend :    VFR   Marginal VFR   IFR   Intensive IFR   Very Intensive IFR
Visi :
Ceiling :
>= 8 km
>= 3000ft
5 to 8 km
1000 to 3000 ft
1500m to 5 km
500 to 1000 ft
800 to 1500m
200 to 500 ft
< 800m
< 200 ft
Symbols :   Thunderstorms  Fog  Heavy snow  Heavy precipitations  Wind > 20 kt
SIGMETs :     Misc.  Thunderstorms  Icing  Turbulence  Mountain Waves  Volcanic Ashes







- Airport Elevation : 1276 ft
- IATA code : STR


EDDS - Stuttgart

CURRENT METAR :
  • 301220Z 31004KT 250V360 CAVOK 19/07 Q1025 NOSIG

EXPIRED METARs :
  • 301150Z VRB04KT 9999 FEW045 18/07 Q1026 NOSIG
  • 301120Z VRB02KT 9999 FEW044 17/06 Q1026 NOSIG
  • 301050Z 04004KT 330V100 9999 FEW042 SCT300 16/06 Q1026 NOSIG
  • 301020Z VRB04KT 9999 FEW037 SCT300 16/07 Q1027 NOSIG
  • 300950Z 09005KT 030V140 9999 FEW031 SCT300 16/07 Q1027 NOSIG

TAF TAF EDDS
Valid from the 30 at 12:00 until the 31 at 12:00 UTC


301100Z 3012/3112 VRB03KT CAVOK
TEMPO 3012/3018 07006KT
No reported NOTAMs for that airfield.



MET'MAP, your aeronautical weather chart ! - Copyright ORBIFLY December 2007 - Disclaimer

ORBIFLY MET'MAP TEAM :

Programming & Development : Alexandra Zaïnal
Concept & Development : Baudouin d'Aumeries
Co-Development & Prog : Marc-Olivier Méhu
Technical & hardware support : Manuel Goepfert

Contact : metmap@orbifly.com




SOURCES & CREDITS :

   NOAA